Blue Oak Ranch Reserve, California Weather observations

Data are for 10 minute period ending at time listed.
 Day   Time   Solar   Ave.   Ave.  Ave.  Vector  Max.   Baro.   Total    
  of    of     Rad.   Air    Rel.  Wind   Wind   Wind  Press.  Precip.   
Year   Day            Temp.  Hum.  Speed  Dir.   Gust                    
2014   (PST)  Kw/m2    F      %     mph   deg.    mph    mb.     in.     
-------------------------------------------------------------------------
 297    5:20   0.00   49.0    79    0.2   250     1.0   947.4    0.00 
 297    5:30   0.00   49.0    78    0.3   107     1.2   947.4    0.00 
 297    5:40   0.00   49.0    78    0.5    66     1.5   947.5    0.00 
 297    5:50   0.00   48.3    79    1.2    51     2.6   947.5    0.00 
 297    6:00   0.00   48.6    78    0.7    27     1.9   947.5    0.00 
 297    6:10   0.00   49.0    78    0.4    27     1.9   947.4    0.00 
 297    6:20   0.01   49.0    79    0.3   329     1.2   947.4    0.00 
 297    6:30   0.01   48.8    78    0.5    44     1.5   947.4    0.00 
 297    6:40   0.01   48.5    79    0.1   358     1.2   947.5    0.00 
 297    6:50   0.01   48.9    78    0.9    36     2.2   947.5    0.00 
 297    7:00   0.03   49.0    78    0.9    72     2.1   947.5    0.00 
 297    7:10   0.09   49.3    78    0.7    75     1.9   947.5    0.00 
 297    7:20   0.12   52.3    74    0.9   276     2.3   947.6    0.00 
 297    7:30   0.15   54.6    70    0.6    76     1.9   947.7    0.00 
 297    7:40   0.18   57.9    64    1.0    60     2.0   947.6    0.00 
 297    7:50   0.21   61.8    56    0.2    76     1.2   947.6    0.00 
 297    8:00   0.24   63.5    54    1.2   103     3.1   947.6    0.00 
 297    8:10   0.27   64.8    52    0.3   206     1.3   947.5    0.00 
 297    8:20   0.30   66.3    50    0.7   335     2.9   947.5    0.00 
 297    8:30   0.33   67.8    45    2.3   224     4.9   947.6    0.00 
 297    8:40   0.35   68.8    43    1.7   208     3.8   947.8    0.00 
 297    8:50   0.38   69.6    42    3.3   159     8.3   947.9    0.00 
 297    9:00   0.41   68.2    44    5.1   160    10.3   947.9    0.00 
 297    9:10   0.43   67.8    45    6.5   158    11.6   948.0    0.00 
 297    9:20   0.45   68.3    43    5.0   155     9.6   948.0    0.00 
 297    9:30   0.48   69.2    41    4.7   150     9.3   948.0    0.00 
 297    9:40   0.50   70.4    38    5.8   160     9.9   948.0    0.00 
 297    9:50   0.52   70.6    37    6.9   148    13.8   948.0    0.00 
 297   10:00   0.54   71.7    35    6.1   164    11.5   948.0    0.00 
 297   10:10   0.56   72.0    35    5.5   151    10.0   947.9    0.00 
 297   10:20   0.57   72.1    35    5.8   167    11.5   947.9    0.00 
 297   10:30   0.59   72.6    34    6.1   143    11.5   947.8    0.00 
 297   10:40   0.60   73.4    33    5.6   149    10.4   947.7    0.00 
 297   10:50   0.61   74.4    32    4.5   151     8.7   947.6    0.00 
 297   11:00   0.62   73.8    34    5.3   152     9.7   947.6    0.00 
 297   11:10   0.63   74.0    34    5.4   154    10.6   947.5    0.00 
 297   11:20   0.64   74.8    34    5.5   178    10.4   947.5    0.00 
 297   11:30   0.65   74.6    34    5.9   153    10.0   947.4    0.00 
 297   11:40   0.65   74.5    34    4.9   148    11.6   947.3    0.00 
 297   11:50   0.65   75.1    33    5.8   178    10.0   947.2    0.00 
 297   12:00   0.65   74.8    34    6.3   201    14.8   947.0    0.00 
 297   12:10   0.65   75.3    34    5.7   231    11.8   946.8    0.00 
 297   12:20   0.65   75.6    31    6.7   160    13.2   946.6    0.00 
 297   12:30   0.65   75.6    29    7.2   146    12.0   946.5    0.00 
 297   12:40   0.61   75.8    28    6.7   158    13.0   946.3    0.00 
 297   12:50   0.63   76.3    27    5.9   149    11.8   946.3    0.00 
 297   13:00   0.62   76.3    26    5.7   150    10.6   946.2    0.00 
 297   13:10   0.61   77.5    25    6.6   223    14.3   946.2    0.00 
 297   13:20   0.60   76.9    27    8.0   216    15.8   946.1    0.00 
 297   13:30   0.58   77.5    27    7.4   232    14.5   946.0    0.00 
 297   13:40   0.56   76.2    28    7.8   205    14.7   946.1    0.00 
 297   13:50   0.55   76.7    28    6.5   176    13.4   946.0    0.00 
 297   14:00   0.52   76.4    26    5.7   195    13.3   945.9    0.00 
 297   14:10   0.51   77.0    32    5.7   252    11.4   945.8    0.00 
 297   14:20   0.48   77.0    35    5.4   254    10.7   945.8    0.00 
 297   14:30   0.46   75.8    38    7.9   261    12.0   945.8    0.00 
 297   14:40   0.43   73.2    40    9.8   265    14.4   945.9    0.00 
 297   14:50   0.41   72.7    41    7.5   260    11.5   946.0    0.00 
 297   15:00   0.37   72.3    42    8.0   263    11.4   946.1    0.00 
 297   15:10   0.37   71.6    43    7.9   264    12.6   946.1    0.00 
 297   15:20   0.33   70.9    44    6.5   264    13.1   946.1    0.00 
 297   15:30   0.27   70.9    44    5.6   259    10.0   946.1    0.00 
 297   15:40   0.27   70.0    46    4.9   255    10.7   946.1    0.00 
 297   15:50   0.24   69.7    46    5.0   260    10.8   946.1    0.00 
 297   16:00   0.17   69.4    47    3.7   271     8.2   946.1    0.00 
 297   16:10   0.13   68.4    49    3.3   226     6.8   946.0    0.00 
 297   16:20   0.14   67.7    51    3.8   258     6.4   945.9    0.00 
 297   16:30   0.10   67.5    52    2.7   254     5.6   945.8    0.00 
 297   16:40   0.13   67.6    51    3.3   257     5.3   945.8    0.00 
 297   16:50   0.09   67.2    51    2.7   230     4.1   945.8    0.00 
 297   17:00   0.05   65.7    53    1.8   173     3.9   945.7    0.00 
 297   17:10   0.02   64.7    56    1.5   247     2.8   945.5    0.00 
 297   17:20   0.01   63.6    58    0.8   261     1.5   945.3    0.00 
 297   17:30   0.00   62.0    61    1.6   272     3.1   945.2    0.00 
 297   17:40   0.00   60.4    62    0.8    18     2.2   945.2    0.00 
 297   17:50   0.00   58.7    65    1.5   150     3.4   945.3    0.00 
 297   18:00   0.00   58.3    66    0.9   115     3.4   945.2    0.00 
 297   18:10   0.00   57.8    67    2.1   105     5.8   945.3    0.00 
 297   18:20   0.00   58.5    66    2.6   163     8.0   945.4    0.00 
 297   18:30   0.00   58.5    66    1.9   151     4.7   945.5    0.00 
 297   18:40   0.00   58.1    67    2.3   180     7.7   945.7    0.00 
 297   18:50   0.00   57.9    69    3.1   169     6.5   945.8    0.00 
 297   19:00   0.00   57.5    70    3.2   155     6.9   945.9    0.00 
 297   19:10   0.00   57.1    71    3.4   155     8.1   946.0    0.00 
 297   19:20   0.00   56.6    73    4.3   166    10.7   946.0    0.00 
 297   19:30   0.00   56.1    76    3.2   143     6.8   946.1    0.00 
 297   19:40   0.00   55.7    79    3.3   168     6.9   946.1    0.00 
 297   19:50   0.00   55.3    81    3.3   164     8.8   946.2    0.00 
 297   20:00   0.00   55.0    83    3.0   139     7.1   946.3    0.00 
 297   20:10   0.00   54.9    82    2.5   104     7.7   946.3    0.00 
 297   20:20   0.00   54.7    81    2.4   100     5.0   946.3    0.00 
 297   20:30   0.00   53.4    81    1.8   116     4.4   946.3    0.00 
 297   20:40   0.00   53.7    84    2.6   192     5.6   946.4    0.00 
 297   20:50   0.00   54.2    84    4.1   184     7.1   946.6    0.00 
 297   21:00   0.00   54.1    84    2.0   242     6.4   946.5    0.00 
 297   21:10   0.00   54.0    85    3.0   217     5.8   946.7    0.00 
 297   21:20   0.00   54.0    85    1.1   246     3.5   946.5    0.00 
 297   21:30   0.00   53.4    85    1.8   250     2.9   946.5    0.00 
 297   21:40   0.00   53.2    86    1.1   233     4.4   946.6    0.00 
 297   21:50   0.00   53.8    86    3.4   174     9.1   946.8    0.00 
 297   22:00   0.00   54.1    87    3.2   156     8.4   947.0    0.00 
 297   22:10   0.00   53.9    88    1.5   123     4.6   947.0    0.00 
 297   22:20   0.00   53.7    88    4.0   192     9.3   947.0    0.00 
 297   22:30   0.00   53.7    89    3.2   181     8.3   947.3    0.00 
 297   22:40   0.00   53.5    90    2.8   112     5.8   947.4    0.00 
 297   22:50   0.00   53.5    90    1.3   116     5.3   947.3    0.00 
 297   23:00   0.00   53.6    90    2.8   161     6.9   947.3    0.00 
 297   23:10   0.00   53.5    90    2.3   166     6.7   947.6    0.00 
 297   23:20   0.00   53.2    90    3.2   142     7.3   947.5    0.00 
 297   23:30   0.00   53.1    91    2.8   167     5.7   947.5    0.00 
 297   23:40   0.00   53.3    91    2.4   164     5.7   947.5    0.00 
 297   23:50   0.00   53.3    91    2.3   175     5.3   947.6    0.00 
 298    0:00   0.00   53.3    91    1.1   120     3.8   947.5    0.00 
 298    0:10   0.00   53.4    91    1.4   134     3.9   947.5    0.00 
 298    0:20   0.00   53.6    90    1.7   148     5.6   947.5    0.00 
 298    0:30   0.00   53.9    90    1.2   139     4.3   947.4    0.00 
 298    0:40   0.00   54.2    89    2.2   171     5.0   947.5    0.00 
 298    0:50   0.00   54.5    88    3.4   158     7.3   947.6    0.00 
 298    1:00   0.00   54.6    87    2.9   162     5.5   947.6    0.00 
 298    1:10   0.00   54.8    86    2.6   168     6.3   947.6    0.00 
 298    1:20   0.00   55.3    84    3.8   159     9.1   947.4    0.00 
 298    1:30   0.00   55.7    83    4.5   164    10.4   947.2    0.00 
 298    1:40   0.00   56.0    82    4.0   167     9.1   947.3    0.00 
 298    1:50   0.00   56.0    82    4.8   155     9.3   947.2    0.00 
 298    2:00   0.00   55.9    82    4.5   156     8.8   947.2    0.00 
 298    2:10   0.00   56.0    82    3.1   146     7.6   947.0    0.00 
 298    2:20   0.00   56.0    82    4.9   152     9.3   946.9    0.00 
 298    2:30   0.00   56.2    82    5.7   152    11.1   946.7    0.00 
 298    2:40   0.00   56.3    81    5.9   162    11.4   946.7    0.00 
 298    2:50   0.00   56.3    81    4.5   166    10.3   946.9    0.00 
 298    3:00   0.00   56.5    81    4.9   153    11.1   946.8    0.00 
 298    3:10   0.00   56.5    80    5.3   157    11.8   946.7    0.00 
 298    3:20   0.00   56.5    80    4.4   164    11.1   946.6    0.00 
 298    3:30   0.00   56.5    80    5.5   164    10.6   946.6    0.00 
 298    3:40   0.00   56.5    80    4.2   161     8.3   946.7    0.00 
 298    3:50   0.00   56.6    80    2.7   159     6.3   946.7    0.00 
 298    4:00   0.00   56.7    79    3.1   154     9.1   946.7    0.00 
 298    4:10   0.00   56.9    78    5.6   156    11.2   946.7    0.00 
 298    4:20   0.00   57.0    78    3.4   153     8.4   946.8    0.00 
 298    4:30   0.00   56.9    78    2.6   154     8.8   946.8    0.00 
 298    4:40   0.00   57.0    78    5.6   153    12.3   946.9    0.00 
 298    4:50   0.00   57.3    78    7.6   141    16.5   946.8    0.00 
 298    5:00   0.00   57.4    78    5.5   143    12.6   946.9    0.00 
 298    5:10   0.00   57.1    79    6.4   148    16.6   946.9    0.00 

Return to Blue Oak Ranch Reserve graphs page.


Western Regional Climate Center,wrcc@dri.edu